Airfield :
LOGIN :

Register | Disclaimer

   EN    FR    IT 

 










Legend :    VFR   Marginal VFR   IFR   Intensive IFR   Very Intensive IFR
Visi :
Ceiling :
>= 8 km
>= 3000ft
5 to 8 km
1000 to 3000 ft
1500m to 5 km
500 to 1000 ft
800 to 1500m
200 to 500 ft
< 800m
< 200 ft
Symbols :   Thunderstorms  Fog  Heavy snow  Heavy precipitations  Wind > 20 kt
SIGMETs :     Misc.  Thunderstorms  Icing  Turbulence  Mountain Waves  Volcanic Ashes






- Airport Elevation : 433 ft


LFOC - Chateaudun

CURRENT METAR :
  • 270230Z AUTO VRB03KT 4700 BR ////// 06/05 Q1017

EXPIRED METARs :
  • 270200Z AUTO 01006KT 5000 BR ////// 06/05 Q1017
  • 270130Z AUTO 03002KT 4800 BR ////// 06/05 Q1017
  • 270100Z AUTO 02004KT 6000 ////// 07/06 Q1017
  • 270030Z AUTO 36003KT 6000 ////// 07/06 Q1018
  • 270000Z AUTO 06004KT 7000 ////// 07/06 Q1018

TAF TAF LFOC
Valid from the 26 at 15:00 until the 27 at 15:00 UTC


261400Z 2615/2715 04006KT CAVOK
BECMG 2619/2621 2000 BR
PROB40
TEMPO 2621/2708 0800 FG VV///
BECMG 2708/2710 4000 BR OVC004



MET'MAP, your aeronautical weather chart ! - Copyright ORBIFLY December 2007 - Disclaimer

ORBIFLY MET'MAP TEAM :

Programming & Development : Alexandra Zaïnal
Concept & original design : Baudouin d'Aumeries
Assistance for programming : Marc-Olivier Méhu
Technical & hardware support : Manuel Goepfert

Contact : metmap@orbifly.com




SOURCES & CREDITS :

   NOAA